sensor_id;sensor_type;location;lat;lon;timestamp;temperature;humidity
5419;DHT22;2732;52.092;11.556;2023-09-08T00:04:11;18.40;91.30
5419;DHT22;2732;52.092;11.556;2023-09-08T00:09:12;18.30;91.60
5419;DHT22;2732;52.092;11.556;2023-09-08T00:14:12;18.20;91.80
5419;DHT22;2732;52.092;11.556;2023-09-08T00:19:13;18.00;92.10
5419;DHT22;2732;52.092;11.556;2023-09-08T00:24:14;17.90;92.40
5419;DHT22;2732;52.092;11.556;2023-09-08T00:29:14;17.80;92.70
5419;DHT22;2732;52.092;11.556;2023-09-08T00:34:15;17.70;92.90
5419;DHT22;2732;52.092;11.556;2023-09-08T00:39:16;17.60;93.10
5419;DHT22;2732;52.092;11.556;2023-09-08T00:44:16;17.50;93.30
5419;DHT22;2732;52.092;11.556;2023-09-08T00:49:17;17.40;93.50
5419;DHT22;2732;52.092;11.556;2023-09-08T00:54:18;17.20;93.70
5419;DHT22;2732;52.092;11.556;2023-09-08T00:59:18;17.20;94.00
5419;DHT22;2732;52.092;11.556;2023-09-08T01:09:27;17.00;94.40
5419;DHT22;2732;52.092;11.556;2023-09-08T01:14:29;16.80;94.70
5419;DHT22;2732;52.092;11.556;2023-09-08T01:19:30;16.70;94.80
5419;DHT22;2732;52.092;11.556;2023-09-08T01:29:59;16.60;95.40
5419;DHT22;2732;52.092;11.556;2023-09-08T01:35:00;16.50;95.60
5419;DHT22;2732;52.092;11.556;2023-09-08T01:40:01;16.40;95.80
5419;DHT22;2732;52.092;11.556;2023-09-08T01:45:02;16.30;95.90
5419;DHT22;2732;52.092;11.556;2023-09-08T01:50:03;16.20;96.10
5419;DHT22;2732;52.092;11.556;2023-09-08T01:55:04;16.10;96.20
5419;DHT22;2732;52.092;11.556;2023-09-08T02:00:06;16.10;96.50
5419;DHT22;2732;52.092;11.556;2023-09-08T02:05:07;16.00;96.80
5419;DHT22;2732;52.092;11.556;2023-09-08T02:10:11;15.90;97.00
5419;DHT22;2732;52.092;11.556;2023-09-08T02:15:12;15.80;97.30
5419;DHT22;2732;52.092;11.556;2023-09-08T02:20:12;15.70;97.50
5419;DHT22;2732;52.092;11.556;2023-09-08T02:25:14;15.60;97.70
5419;DHT22;2732;52.092;11.556;2023-09-08T02:30:15;15.60;97.80
5419;DHT22;2732;52.092;11.556;2023-09-08T02:35:16;15.50;98.10
5419;DHT22;2732;52.092;11.556;2023-09-08T02:40:17;15.40;98.30
5419;DHT22;2732;52.092;11.556;2023-09-08T02:45:17;15.40;98.50
5419;DHT22;2732;52.092;11.556;2023-09-08T02:50:18;15.30;98.80
5419;DHT22;2732;52.092;11.556;2023-09-08T02:55:19;15.20;98.80
5419;DHT22;2732;52.092;11.556;2023-09-08T03:00:20;15.20;99.10
5419;DHT22;2732;52.092;11.556;2023-09-08T03:05:21;15.10;99.20
5419;DHT22;2732;52.092;11.556;2023-09-08T03:10:21;15.10;99.50
5419;DHT22;2732;52.092;11.556;2023-09-08T03:15:22;15.00;99.60
5419;DHT22;2732;52.092;11.556;2023-09-08T03:20:23;15.00;99.80
5419;DHT22;2732;52.092;11.556;2023-09-08T03:25:23;14.90;99.90
5419;DHT22;2732;52.092;11.556;2023-09-08T03:30:24;14.80;99.90
5419;DHT22;2732;52.092;11.556;2023-09-08T03:35:24;14.80;99.90
5419;DHT22;2732;52.092;11.556;2023-09-08T03:40:25;14.70;99.90
5419;DHT22;2732;52.092;11.556;2023-09-08T03:45:26;14.70;99.90
5419;DHT22;2732;52.092;11.556;2023-09-08T03:50:26;14.70;99.90
5419;DHT22;2732;52.092;11.556;2023-09-08T03:55:27;14.60;99.90
5419;DHT22;2732;52.092;11.556;2023-09-08T04:00:28;14.50;99.90
5419;DHT22;2732;52.092;11.556;2023-09-08T04:05:29;14.50;99.90
5419;DHT22;2732;52.092;11.556;2023-09-08T04:10:29;14.40;99.90
5419;DHT22;2732;52.092;11.556;2023-09-08T04:15:30;14.40;99.90
5419;DHT22;2732;52.092;11.556;2023-09-08T04:20:31;14.30;99.90
5419;DHT22;2732;52.092;11.556;2023-09-08T04:25:32;14.30;99.90
5419;DHT22;2732;52.092;11.556;2023-09-08T04:30:35;14.30;99.90
5419;DHT22;2732;52.092;11.556;2023-09-08T04:35:35;14.20;99.90
5419;DHT22;2732;52.092;11.556;2023-09-08T04:40:40;14.20;99.90
5419;DHT22;2732;52.092;11.556;2023-09-08T04:45:42;14.10;99.90
5419;DHT22;2732;52.092;11.556;2023-09-08T04:50:43;14.10;99.90
5419;DHT22;2732;52.092;11.556;2023-09-08T04:55:43;14.00;99.90
5419;DHT22;2732;52.092;11.556;2023-09-08T05:00:44;14.10;99.90
5419;DHT22;2732;52.092;11.556;2023-09-08T05:05:45;14.10;99.90
5419;DHT22;2732;52.092;11.556;2023-09-08T05:10:45;14.00;99.90
5419;DHT22;2732;52.092;11.556;2023-09-08T05:15:46;14.00;99.90
5419;DHT22;2732;52.092;11.556;2023-09-08T05:20:48;14.00;99.90
5419;DHT22;2732;52.092;11.556;2023-09-08T05:25:49;14.00;99.90
5419;DHT22;2732;52.092;11.556;2023-09-08T05:30:55;14.00;99.90
5419;DHT22;2732;52.092;11.556;2023-09-08T05:35:56;14.00;99.90
5419;DHT22;2732;52.092;11.556;2023-09-08T05:40:57;14.10;99.90
5419;DHT22;2732;52.092;11.556;2023-09-08T05:45:57;14.20;99.90
5419;DHT22;2732;52.092;11.556;2023-09-08T05:50:58;14.20;99.90
5419;DHT22;2732;52.092;11.556;2023-09-08T05:55:59;14.30;99.90
5419;DHT22;2732;52.092;11.556;2023-09-08T06:01:01;14.40;99.90
5419;DHT22;2732;52.092;11.556;2023-09-08T06:06:04;14.50;99.90
5419;DHT22;2732;52.092;11.556;2023-09-08T06:11:05;14.70;99.90
5419;DHT22;2732;52.092;11.556;2023-09-08T06:16:05;14.90;99.90
5419;DHT22;2732;52.092;11.556;2023-09-08T06:21:07;15.00;99.90
5419;DHT22;2732;52.092;11.556;2023-09-08T06:26:07;15.10;99.90
5419;DHT22;2732;52.092;11.556;2023-09-08T06:31:08;15.30;99.90
5419;DHT22;2732;52.092;11.556;2023-09-08T06:36:09;15.40;99.90
5419;DHT22;2732;52.092;11.556;2023-09-08T06:41:11;15.60;99.90
5419;DHT22;2732;52.092;11.556;2023-09-08T06:46:12;15.70;99.90
5419;DHT22;2732;52.092;11.556;2023-09-08T06:51:12;15.90;99.90
5419;DHT22;2732;52.092;11.556;2023-09-08T06:56:13;16.00;99.90
5419;DHT22;2732;52.092;11.556;2023-09-08T07:01:14;16.20;99.90
5419;DHT22;2732;52.092;11.556;2023-09-08T07:06:15;16.30;99.90
5419;DHT22;2732;52.092;11.556;2023-09-08T07:11:16;16.50;99.90
5419;DHT22;2732;52.092;11.556;2023-09-08T07:16:17;16.70;99.90
5419;DHT22;2732;52.092;11.556;2023-09-08T07:21:17;16.90;99.90
5419;DHT22;2732;52.092;11.556;2023-09-08T07:26:18;17.00;99.90
5419;DHT22;2732;52.092;11.556;2023-09-08T07:31:19;17.30;99.90
5419;DHT22;2732;52.092;11.556;2023-09-08T07:36:19;17.70;99.90
5419;DHT22;2732;52.092;11.556;2023-09-08T07:41:20;18.10;99.90
5419;DHT22;2732;52.092;11.556;2023-09-08T07:46:21;18.40;99.90
5419;DHT22;2732;52.092;11.556;2023-09-08T07:51:21;18.70;99.90
5419;DHT22;2732;52.092;11.556;2023-09-08T07:56:22;19.20;99.90
5419;DHT22;2732;52.092;11.556;2023-09-08T08:01:23;19.60;99.90
5419;DHT22;2732;52.092;11.556;2023-09-08T08:06:23;20.10;99.90
5419;DHT22;2732;52.092;11.556;2023-09-08T08:11:24;20.50;99.90
5419;DHT22;2732;52.092;11.556;2023-09-08T08:16:25;20.90;99.90
5419;DHT22;2732;52.092;11.556;2023-09-08T08:21:26;21.40;99.90
5419;DHT22;2732;52.092;11.556;2023-09-08T08:26:27;21.80;99.90
5419;DHT22;2732;52.092;11.556;2023-09-08T08:31:30;22.30;99.90
5419;DHT22;2732;52.092;11.556;2023-09-08T08:36:30;22.70;99.90
5419;DHT22;2732;52.092;11.556;2023-09-08T08:41:31;23.10;99.90
5419;DHT22;2732;52.092;11.556;2023-09-08T08:46:36;23.60;99.90
5419;DHT22;2732;52.092;11.556;2023-09-08T08:51:38;24.00;99.90
5419;DHT22;2732;52.092;11.556;2023-09-08T08:56:41;24.50;99.80
5419;DHT22;2732;52.092;11.556;2023-09-08T09:01:42;24.90;99.40
5419;DHT22;2732;52.092;11.556;2023-09-08T09:06:43;25.20;98.50
5419;DHT22;2732;52.092;11.556;2023-09-08T09:11:44;25.60;97.90
5419;DHT22;2732;52.092;11.556;2023-09-08T09:16:45;25.90;97.60
5419;DHT22;2732;52.092;11.556;2023-09-08T09:21:48;26.30;97.00
5419;DHT22;2732;52.092;11.556;2023-09-08T09:26:52;26.60;96.40
5419;DHT22;2732;52.092;11.556;2023-09-08T09:31:55;26.90;95.70
5419;DHT22;2732;52.092;11.556;2023-09-08T09:36:57;27.30;94.50
5419;DHT22;2732;52.092;11.556;2023-09-08T09:41:59;27.70;93.40
5419;DHT22;2732;52.092;11.556;2023-09-08T09:47:01;28.10;93.20
5419;DHT22;2732;52.092;11.556;2023-09-08T09:52:02;28.50;92.20
5419;DHT22;2732;52.092;11.556;2023-09-08T09:57:03;28.80;91.10
5419;DHT22;2732;52.092;11.556;2023-09-08T10:02:11;29.00;90.20
5419;DHT22;2732;52.092;11.556;2023-09-08T10:07:14;29.30;90.10
5419;DHT22;2732;52.092;11.556;2023-09-08T10:12:16;29.70;89.40
5419;DHT22;2732;52.092;11.556;2023-09-08T10:17:21;30.00;87.40
5419;DHT22;2732;52.092;11.556;2023-09-08T10:22:29;30.30;85.00
5419;DHT22;2732;52.092;11.556;2023-09-08T10:27:31;30.50;84.60
5419;DHT22;2732;52.092;11.556;2023-09-08T10:32:33;30.70;84.50
5419;DHT22;2732;52.092;11.556;2023-09-08T10:37:36;30.90;83.00
5419;DHT22;2732;52.092;11.556;2023-09-08T10:42:40;31.20;80.60
5419;DHT22;2732;52.092;11.556;2023-09-08T10:53:07;31.60;76.90
5419;DHT22;2732;52.092;11.556;2023-09-08T10:58:31;31.80;76.00
5419;DHT22;2732;52.092;11.556;2023-09-08T11:08:40;32.20;73.00
5419;DHT22;2732;52.092;11.556;2023-09-08T11:13:42;32.40;70.90
5419;DHT22;2732;52.092;11.556;2023-09-08T11:18:46;32.60;71.00
5419;DHT22;2732;52.092;11.556;2023-09-08T11:23:46;32.80;69.90
5419;DHT22;2732;52.092;11.556;2023-09-08T11:28:48;33.00;70.00
5419;DHT22;2732;52.092;11.556;2023-09-08T11:33:49;33.20;66.60
5419;DHT22;2732;52.092;11.556;2023-09-08T11:38:55;33.40;63.70
5419;DHT22;2732;52.092;11.556;2023-09-08T11:43:56;33.50;62.90
5419;DHT22;2732;52.092;11.556;2023-09-08T11:48:56;33.70;63.00
5419;DHT22;2732;52.092;11.556;2023-09-08T11:53:57;33.70;61.00
5419;DHT22;2732;52.092;11.556;2023-09-08T11:58:58;33.80;61.90
5419;DHT22;2732;52.092;11.556;2023-09-08T12:04:00;33.90;62.20
5419;DHT22;2732;52.092;11.556;2023-09-08T12:09:01;34.10;59.90
5419;DHT22;2732;52.092;11.556;2023-09-08T12:14:09;34.20;60.30
5419;DHT22;2732;52.092;11.556;2023-09-08T12:19:31;34.30;60.20
5419;DHT22;2732;52.092;11.556;2023-09-08T12:29:55;34.50;58.10
5419;DHT22;2732;52.092;11.556;2023-09-08T12:34:58;34.50;58.00
5419;DHT22;2732;52.092;11.556;2023-09-08T12:39:59;34.70;55.70
5419;DHT22;2732;52.092;11.556;2023-09-08T12:45:01;34.80;54.40
5419;DHT22;2732;52.092;11.556;2023-09-08T12:50:03;34.80;52.90
5419;DHT22;2732;52.092;11.556;2023-09-08T12:55:04;34.80;53.90
5419;DHT22;2732;52.092;11.556;2023-09-08T13:00:06;34.80;53.70
5419;DHT22;2732;52.092;11.556;2023-09-08T13:05:07;34.90;55.70
5419;DHT22;2732;52.092;11.556;2023-09-08T13:10:08;35.00;52.60
5419;DHT22;2732;52.092;11.556;2023-09-08T13:15:09;35.00;53.30
5419;DHT22;2732;52.092;11.556;2023-09-08T13:20:10;35.10;53.60
5419;DHT22;2732;52.092;11.556;2023-09-08T13:25:12;35.20;54.30
5419;DHT22;2732;52.092;11.556;2023-09-08T13:30:14;35.10;52.40
5419;DHT22;2732;52.092;11.556;2023-09-08T13:35:16;35.20;52.40
5419;DHT22;2732;52.092;11.556;2023-09-08T13:40:17;35.10;54.30
5419;DHT22;2732;52.092;11.556;2023-09-08T13:45:18;35.20;53.10
5419;DHT22;2732;52.092;11.556;2023-09-08T13:50:18;35.10;51.50
5419;DHT22;2732;52.092;11.556;2023-09-08T13:55:19;35.00;53.10
5419;DHT22;2732;52.092;11.556;2023-09-08T14:00:24;35.00;52.60
5419;DHT22;2732;52.092;11.556;2023-09-08T14:05:25;35.00;52.60
5419;DHT22;2732;52.092;11.556;2023-09-08T14:10:25;35.00;55.00
5419;DHT22;2732;52.092;11.556;2023-09-08T14:15:26;35.00;54.80
5419;DHT22;2732;52.092;11.556;2023-09-08T14:20:26;35.00;53.60
5419;DHT22;2732;52.092;11.556;2023-09-08T14:25:27;34.90;54.50
5419;DHT22;2732;52.092;11.556;2023-09-08T14:30:28;34.90;51.90
5419;DHT22;2732;52.092;11.556;2023-09-08T14:35:29;34.80;51.30
5419;DHT22;2732;52.092;11.556;2023-09-08T14:40:30;34.80;51.00
5419;DHT22;2732;52.092;11.556;2023-09-08T14:45:30;34.60;50.90
5419;DHT22;2732;52.092;11.556;2023-09-08T14:50:31;34.60;51.20
5419;DHT22;2732;52.092;11.556;2023-09-08T14:55:32;34.60;50.20
5419;DHT22;2732;52.092;11.556;2023-09-08T15:00:33;34.50;50.40
5419;DHT22;2732;52.092;11.556;2023-09-08T15:05:34;34.40;50.90
5419;DHT22;2732;52.092;11.556;2023-09-08T15:10:35;34.40;50.50
5419;DHT22;2732;52.092;11.556;2023-09-08T15:15:36;34.30;51.10
5419;DHT22;2732;52.092;11.556;2023-09-08T15:20:36;34.30;50.80
5419;DHT22;2732;52.092;11.556;2023-09-08T15:25:37;34.30;50.20
5419;DHT22;2732;52.092;11.556;2023-09-08T15:30:38;34.20;51.60
5419;DHT22;2732;52.092;11.556;2023-09-08T15:35:38;34.20;52.00
5419;DHT22;2732;52.092;11.556;2023-09-08T15:40:55;34.10;50.60
5419;DHT22;2732;52.092;11.556;2023-09-08T15:46:07;34.00;49.70
5419;DHT22;2732;52.092;11.556;2023-09-08T15:51:09;33.80;50.00
5419;DHT22;2732;52.092;11.556;2023-09-08T15:56:10;33.80;50.10
5419;DHT22;2732;52.092;11.556;2023-09-08T16:01:12;33.70;49.50
5419;DHT22;2732;52.092;11.556;2023-09-08T16:06:13;33.60;49.60
5419;DHT22;2732;52.092;11.556;2023-09-08T16:11:13;33.50;49.80
5419;DHT22;2732;52.092;11.556;2023-09-08T16:16:14;33.30;49.40
5419;DHT22;2732;52.092;11.556;2023-09-08T16:21:16;33.20;49.60
5419;DHT22;2732;52.092;11.556;2023-09-08T16:26:17;33.10;49.50
5419;DHT22;2732;52.092;11.556;2023-09-08T16:31:18;32.90;49.40
5419;DHT22;2732;52.092;11.556;2023-09-08T16:36:18;32.70;49.40
5419;DHT22;2732;52.092;11.556;2023-09-08T16:41:19;32.50;49.50
5419;DHT22;2732;52.092;11.556;2023-09-08T16:46:19;32.40;50.00
5419;DHT22;2732;52.092;11.556;2023-09-08T16:51:20;32.10;50.90
5419;DHT22;2732;52.092;11.556;2023-09-08T16:56:21;31.70;51.90
5419;DHT22;2732;52.092;11.556;2023-09-08T17:01:21;31.30;52.70
5419;DHT22;2732;52.092;11.556;2023-09-08T17:06:22;31.00;53.90
5419;DHT22;2732;52.092;11.556;2023-09-08T17:11:23;30.60;54.80
5419;DHT22;2732;52.092;11.556;2023-09-08T17:16:23;30.20;55.40
5419;DHT22;2732;52.092;11.556;2023-09-08T17:21:24;29.80;56.90
5419;DHT22;2732;52.092;11.556;2023-09-08T17:26:25;29.40;57.40
5419;DHT22;2732;52.092;11.556;2023-09-08T17:31:25;29.20;58.00
5419;DHT22;2732;52.092;11.556;2023-09-08T17:36:26;28.90;58.40
5419;DHT22;2732;52.092;11.556;2023-09-08T17:41:27;28.60;59.30
5419;DHT22;2732;52.092;11.556;2023-09-08T17:46:27;28.20;60.00
5419;DHT22;2732;52.092;11.556;2023-09-08T17:51:28;28.00;61.60
5419;DHT22;2732;52.092;11.556;2023-09-08T17:56:29;27.60;62.60
5419;DHT22;2732;52.092;11.556;2023-09-08T18:01:29;27.20;63.60
5419;DHT22;2732;52.092;11.556;2023-09-08T18:06:30;26.90;64.90
5419;DHT22;2732;52.092;11.556;2023-09-08T18:11:31;26.60;65.90
5419;DHT22;2732;52.092;11.556;2023-09-08T18:16:33;26.20;66.80
5419;DHT22;2732;52.092;11.556;2023-09-08T18:21:34;25.90;67.70
5419;DHT22;2732;52.092;11.556;2023-09-08T18:26:34;25.70;68.50
5419;DHT22;2732;52.092;11.556;2023-09-08T18:31:35;25.40;69.20
5419;DHT22;2732;52.092;11.556;2023-09-08T18:36:36;25.20;69.90
5419;DHT22;2732;52.092;11.556;2023-09-08T18:41:36;25.00;70.10
5419;DHT22;2732;52.092;11.556;2023-09-08T18:46:38;24.70;70.30
5419;DHT22;2732;52.092;11.556;2023-09-08T18:51:40;24.50;70.80
5419;DHT22;2732;52.092;11.556;2023-09-08T18:56:40;24.30;71.30
5419;DHT22;2732;52.092;11.556;2023-09-08T19:01:41;24.00;71.60
5419;DHT22;2732;52.092;11.556;2023-09-08T19:06:42;23.80;72.30
5419;DHT22;2732;52.092;11.556;2023-09-08T19:11:42;23.60;73.10
5419;DHT22;2732;52.092;11.556;2023-09-08T19:16:43;23.40;74.00
5419;DHT22;2732;52.092;11.556;2023-09-08T19:21:44;23.10;74.80
5419;DHT22;2732;52.092;11.556;2023-09-08T19:26:45;22.90;75.30
5419;DHT22;2732;52.092;11.556;2023-09-08T19:31:46;22.70;76.00
5419;DHT22;2732;52.092;11.556;2023-09-08T19:36:46;22.60;76.60
5419;DHT22;2732;52.092;11.556;2023-09-08T19:41:47;22.40;77.20
5419;DHT22;2732;52.092;11.556;2023-09-08T19:46:47;22.20;77.60
5419;DHT22;2732;52.092;11.556;2023-09-08T19:51:48;22.00;78.20
5419;DHT22;2732;52.092;11.556;2023-09-08T19:56:49;21.80;78.80
5419;DHT22;2732;52.092;11.556;2023-09-08T20:01:49;21.70;79.50
5419;DHT22;2732;52.092;11.556;2023-09-08T20:06:50;21.50;80.10
5419;DHT22;2732;52.092;11.556;2023-09-08T20:11:53;21.30;80.70
5419;DHT22;2732;52.092;11.556;2023-09-08T20:16:54;21.20;81.40
5419;DHT22;2732;52.092;11.556;2023-09-08T20:21:55;21.00;82.00
5419;DHT22;2732;52.092;11.556;2023-09-08T20:26:56;20.90;82.70
5419;DHT22;2732;52.092;11.556;2023-09-08T20:31:56;20.70;83.50
5419;DHT22;2732;52.092;11.556;2023-09-08T20:36:57;20.50;84.10
5419;DHT22;2732;52.092;11.556;2023-09-08T20:41:58;20.40;84.70
5419;DHT22;2732;52.092;11.556;2023-09-08T20:46:59;20.30;85.20
5419;DHT22;2732;52.092;11.556;2023-09-08T20:51:59;20.10;85.70
5419;DHT22;2732;52.092;11.556;2023-09-08T20:57:00;20.00;86.60
5419;DHT22;2732;52.092;11.556;2023-09-08T21:02:01;19.90;87.10
5419;DHT22;2732;52.092;11.556;2023-09-08T21:07:01;19.70;87.70
5419;DHT22;2732;52.092;11.556;2023-09-08T21:12:02;19.60;88.30
5419;DHT22;2732;52.092;11.556;2023-09-08T21:17:03;19.50;89.10
5419;DHT22;2732;52.092;11.556;2023-09-08T21:22:04;19.40;89.70
5419;DHT22;2732;52.092;11.556;2023-09-08T21:27:05;19.30;90.10
5419;DHT22;2732;52.092;11.556;2023-09-08T21:32:05;19.10;90.30
5419;DHT22;2732;52.092;11.556;2023-09-08T21:37:07;19.00;90.60
5419;DHT22;2732;52.092;11.556;2023-09-08T21:42:07;18.90;90.80
5419;DHT22;2732;52.092;11.556;2023-09-08T21:47:08;18.80;91.20
5419;DHT22;2732;52.092;11.556;2023-09-08T21:52:08;18.60;91.40
5419;DHT22;2732;52.092;11.556;2023-09-08T21:57:09;18.60;91.70
5419;DHT22;2732;52.092;11.556;2023-09-08T22:02:09;18.40;92.00
5419;DHT22;2732;52.092;11.556;2023-09-08T22:07:10;18.30;92.40
5419;DHT22;2732;52.092;11.556;2023-09-08T22:12:15;18.20;92.70
5419;DHT22;2732;52.092;11.556;2023-09-08T22:18:14;18.10;92.90
5419;DHT22;2732;52.092;11.556;2023-09-08T22:23:15;18.00;93.20
5419;DHT22;2732;52.092;11.556;2023-09-08T22:28:16;17.90;93.40
5419;DHT22;2732;52.092;11.556;2023-09-08T22:33:16;17.80;93.70
5419;DHT22;2732;52.092;11.556;2023-09-08T22:38:17;17.70;94.00
5419;DHT22;2732;52.092;11.556;2023-09-08T22:43:18;17.60;94.20
5419;DHT22;2732;52.092;11.556;2023-09-08T22:48:18;17.50;94.50
5419;DHT22;2732;52.092;11.556;2023-09-08T22:53:19;17.40;94.70
5419;DHT22;2732;52.092;11.556;2023-09-08T22:58:20;17.30;94.90
5419;DHT22;2732;52.092;11.556;2023-09-08T23:03:21;17.30;95.10
5419;DHT22;2732;52.092;11.556;2023-09-08T23:08:21;17.20;95.40
5419;DHT22;2732;52.092;11.556;2023-09-08T23:13:22;17.10;95.50
5419;DHT22;2732;52.092;11.556;2023-09-08T23:18:22;17.00;95.80
5419;DHT22;2732;52.092;11.556;2023-09-08T23:23:23;16.90;96.00
5419;DHT22;2732;52.092;11.556;2023-09-08T23:28:24;16.80;96.20
5419;DHT22;2732;52.092;11.556;2023-09-08T23:33:24;16.70;96.40
5419;DHT22;2732;52.092;11.556;2023-09-08T23:38:25;16.70;96.70
5419;DHT22;2732;52.092;11.556;2023-09-08T23:43:25;16.60;96.90
5419;DHT22;2732;52.092;11.556;2023-09-08T23:48:26;16.50;97.10
5419;DHT22;2732;52.092;11.556;2023-09-08T23:53:28;16.50;97.30
5419;DHT22;2732;52.092;11.556;2023-09-08T23:58:29;16.40;97.60
